Auburn, Iowa
Current Conditions -  °F | °C
As of 11:35 PM on Thursday 30 Oct 2014 (Local Time) from KCIN Reporting Station
Overcast Overcast  
Wind Chill: 29°   Ceiling: 2300
Heat Index: 39°   Visibility: 10mi
Dew Point: 32°   Wind: 23mph
Humidity: 75%   Direction: 340°NNW
Pressure: 30.33"   Gusts: 30mph
Location:  42.25°N, 94.88°W
Report Text: KCIN 310435Z AUTO 34020G26KT 10SM OVC023 04/M00 A3033 RMK AO2
Loading
Personal Weather Stations






























Interactive Weather Map
Tropical Storm Tracking
New forecast layout! Learn more

10-Day Weather Forecast

Advertisements
Track Severe Weather on mobile